createdAt,value
2023-03-27T00:00:06.857Z,95.46
2023-03-27T00:01:07.050Z,95.56
2023-03-27T00:02:06.913Z,95.67
2023-03-27T00:03:07.052Z,95.78
2023-03-27T00:04:06.964Z,95.78
2023-03-27T00:05:06.802Z,95.78
2023-03-27T00:06:06.797Z,95.67
2023-03-27T00:07:06.845Z,95.72
2023-03-27T00:08:06.814Z,95.61
2023-03-27T00:09:06.798Z,95.72
2023-03-27T00:10:06.758Z,95.92
2023-03-27T00:11:06.786Z,96.23
2023-03-27T00:12:06.739Z,96.34
2023-03-27T00:13:06.707Z,96.23
2023-03-27T00:14:06.877Z,96.34
2023-03-27T00:15:06.739Z,96.34
2023-03-27T00:16:06.702Z,96.34
2023-03-27T00:17:06.674Z,96.34
2023-03-27T00:18:06.789Z,96.49
2023-03-27T00:19:06.754Z,96.49
2023-03-27T00:20:06.687Z,96.49
2023-03-27T00:21:06.655Z,96.59
2023-03-27T00:22:06.647Z,96.80
2023-03-27T00:23:06.649Z,96.91
2023-03-27T00:24:06.635Z,97.01
2023-03-27T00:25:06.635Z,97.11
2023-03-27T00:26:06.621Z,97.27
2023-03-27T00:27:06.580Z,97.37
2023-03-27T00:28:06.592Z,97.68
2023-03-27T00:29:06.662Z,97.78
2023-03-27T00:30:06.809Z,97.89
2023-03-27T00:31:06.585Z,97.78
2023-03-27T00:32:06.599Z,97.78
2023-03-27T00:33:06.553Z,97.89
2023-03-27T00:34:06.553Z,97.99
2023-03-27T00:35:06.564Z,98.14
2023-03-27T00:36:06.759Z,98.14
2023-03-27T00:37:06.456Z,98.25
2023-03-27T00:38:06.475Z,98.25
2023-03-27T00:39:06.482Z,98.35
2023-03-27T00:40:06.486Z,98.46
2023-03-27T00:41:06.485Z,98.67
2023-03-27T00:42:06.544Z,98.77
2023-03-27T00:43:06.516Z,98.98
2023-03-27T00:44:06.430Z,98.98
2023-03-27T00:45:06.427Z,99.08
2023-03-27T00:46:06.443Z,99.08
2023-03-27T00:47:06.375Z,99.19
2023-03-27T00:48:06.446Z,99.29
2023-03-27T00:49:06.372Z,99.40
2023-03-27T00:50:06.453Z,99.40
2023-03-27T00:51:06.376Z,99.71
2023-03-27T00:52:06.395Z,99.82
2023-03-27T00:53:06.326Z,99.92
2023-03-27T00:54:06.352Z,99.99
2023-03-27T00:55:06.351Z,99.99
2023-03-27T00:56:06.384Z,99.99
2023-03-27T00:57:06.341Z,99.99
2023-03-27T00:58:06.287Z,99.99
2023-03-27T00:59:06.318Z,99.99
2023-03-27T01:00:07.631Z,99.99
2023-03-27T01:01:06.265Z,99.99
2023-03-27T01:02:06.298Z,99.99
2023-03-27T01:03:06.448Z,99.99
2023-03-27T01:04:06.307Z,99.99
2023-03-27T01:05:06.247Z,99.99
2023-03-27T01:06:06.271Z,99.99
2023-03-27T01:07:06.444Z,99.99
2023-03-27T01:08:06.203Z,99.99
2023-03-27T01:09:06.164Z,99.99
2023-03-27T01:10:06.218Z,99.99
2023-03-27T01:11:06.207Z,99.99
2023-03-27T01:12:06.245Z,99.99
2023-03-27T01:13:06.159Z,99.99
2023-03-27T01:14:06.108Z,99.99
2023-03-27T01:15:06.210Z,99.99
2023-03-27T01:16:06.132Z,99.99
2023-03-27T01:17:06.122Z,99.99
2023-03-27T01:18:06.152Z,99.99
2023-03-27T01:19:06.161Z,99.92
2023-03-27T01:20:06.067Z,99.96
2023-03-27T01:21:06.144Z,99.86
2023-03-27T01:22:06.089Z,99.86
2023-03-27T01:23:06.058Z,99.86
2023-03-27T01:24:06.072Z,99.76
2023-03-27T01:25:05.985Z,99.76
2023-03-27T01:26:06.045Z,99.76
2023-03-27T01:27:06.042Z,99.76
2023-03-27T01:28:06.225Z,99.80
2023-03-27T01:29:06.016Z,99.76
2023-03-27T01:30:06.096Z,99.91
2023-03-27T01:31:05.986Z,99.99
2023-03-27T01:32:05.976Z,99.99
2023-03-27T01:33:05.955Z,99.99
2023-03-27T01:34:05.910Z,99.99
2023-03-27T01:35:05.896Z,99.99
2023-03-27T01:36:05.907Z,99.99
2023-03-27T01:37:05.864Z,99.99
2023-03-27T01:38:05.951Z,99.99
2023-03-27T01:39:05.861Z,99.99
2023-03-27T01:40:05.841Z,99.99
2023-03-27T01:41:05.842Z,99.99
2023-03-27T01:42:05.882Z,99.99
2023-03-27T01:43:05.820Z,99.99
2023-03-27T01:44:05.870Z,99.99
2023-03-27T01:45:05.878Z,99.99
2023-03-27T01:46:05.788Z,99.99
2023-03-27T01:47:05.794Z,99.99
2023-03-27T01:48:06.038Z,99.99
2023-03-27T01:49:05.832Z,99.99
2023-03-27T01:50:05.787Z,99.99
2023-03-27T01:51:05.834Z,99.99
2023-03-27T01:52:05.830Z,99.99
2023-03-27T01:53:05.726Z,99.99
2023-03-27T01:54:05.763Z,99.99
2023-03-27T01:55:05.748Z,99.99
2023-03-27T01:56:05.762Z,99.99
2023-03-27T01:57:05.726Z,99.99
2023-03-27T01:58:05.705Z,99.99
2023-03-27T01:59:05.794Z,99.99
2023-03-27T02:00:18.497Z,99.99
2023-03-27T02:01:05.950Z,99.99
2023-03-27T02:02:05.635Z,99.99
2023-03-27T02:03:05.661Z,99.99
2023-03-27T02:04:05.667Z,99.99
2023-03-27T02:05:05.697Z,99.99
2023-03-27T02:06:05.652Z,99.99
2023-03-27T02:07:05.577Z,99.99
2023-03-27T02:08:05.587Z,99.99
2023-03-27T02:09:05.816Z,99.99
2023-03-27T02:10:05.558Z,99.99
2023-03-27T02:11:05.568Z,99.99
2023-03-27T02:12:05.526Z,99.99
2023-03-27T02:13:05.595Z,99.99
2023-03-27T02:14:05.591Z,99.99
2023-03-27T02:15:23.861Z,99.99
2023-03-27T02:16:05.596Z,99.99
2023-03-27T02:17:05.454Z,99.99
2023-03-27T02:18:05.789Z,99.99
2023-03-27T02:19:05.510Z,99.99
2023-03-27T02:20:05.514Z,99.99
2023-03-27T02:21:05.435Z,99.99
2023-03-27T02:22:05.457Z,99.99
2023-03-27T02:23:05.430Z,99.99
2023-03-27T02:24:05.420Z,99.99
2023-03-27T02:25:05.428Z,99.99
2023-03-27T02:26:05.406Z,99.99
2023-03-27T02:27:05.417Z,99.99
2023-03-27T02:28:05.386Z,99.99
2023-03-27T02:29:05.350Z,99.99
2023-03-27T02:30:05.619Z,99.99
2023-03-27T02:31:31.919Z,99.99
2023-03-27T02:32:05.484Z,99.99
2023-03-27T02:33:05.434Z,99.99
2023-03-27T02:34:05.602Z,99.99
2023-03-27T02:35:05.366Z,99.99
2023-03-27T02:36:05.418Z,99.99
2023-03-27T02:37:05.327Z,99.99
2023-03-27T02:38:05.281Z,99.99
2023-03-27T02:39:05.267Z,99.99
2023-03-27T02:40:05.286Z,99.99
2023-03-27T02:41:05.281Z,99.99
2023-03-27T02:42:05.363Z,99.99
2023-03-27T02:43:05.220Z,99.99
2023-03-27T02:44:05.212Z,99.99
2023-03-27T02:45:05.230Z,99.99
2023-03-27T02:46:05.271Z,99.99
2023-03-27T02:47:05.251Z,99.99
2023-03-27T02:48:05.231Z,99.99
2023-03-27T02:49:05.152Z,99.99
2023-03-27T02:50:05.178Z,99.99
2023-03-27T02:51:05.152Z,99.99
2023-03-27T02:52:05.164Z,99.99
2023-03-27T02:53:05.106Z,99.99
2023-03-27T02:54:05.135Z,99.99
2023-03-27T02:55:05.131Z,99.99
2023-03-27T02:56:05.091Z,99.99
2023-03-27T02:57:05.221Z,99.99
2023-03-27T02:58:05.079Z,99.99
2023-03-27T02:59:05.099Z,99.99
2023-03-27T03:00:05.086Z,99.99
2023-03-27T03:01:05.188Z,99.99
2023-03-27T03:02:05.124Z,99.99
2023-03-27T03:03:05.249Z,99.99
2023-03-27T03:04:05.084Z,99.99
2023-03-27T03:05:05.026Z,99.99
2023-03-27T03:06:05.017Z,99.99
2023-03-27T03:07:05.180Z,99.99
2023-03-27T03:08:05.037Z,99.99
2023-03-27T03:09:05.038Z,99.99
2023-03-27T03:10:05.030Z,99.99
2023-03-27T03:11:05.251Z,99.99
2023-03-27T03:12:05.022Z,99.99
2023-03-27T03:13:05.202Z,99.99
2023-03-27T03:14:05.151Z,99.99
2023-03-27T03:15:04.984Z,99.99
2023-03-27T03:16:05.005Z,99.99
2023-03-27T03:17:05.079Z,99.99
2023-03-27T03:18:05.205Z,99.99
2023-03-27T03:19:05.157Z,99.99
2023-03-27T03:20:04.993Z,99.99
2023-03-27T03:21:04.878Z,99.99
2023-03-27T03:22:05.022Z,99.99
2023-03-27T03:23:05.023Z,99.99
2023-03-27T03:24:05.001Z,99.99
2023-03-27T03:25:05.019Z,99.99
2023-03-27T03:26:04.843Z,99.99
2023-03-27T03:27:05.017Z,99.99
2023-03-27T03:28:04.975Z,99.99
2023-03-27T03:29:04.843Z,99.99
2023-03-27T03:30:05.001Z,99.99
2023-03-27T03:31:05.040Z,99.99
2023-03-27T03:32:04.942Z,99.99
2023-03-27T03:33:04.975Z,99.99
2023-03-27T03:34:04.890Z,99.99
2023-03-27T03:35:04.789Z,99.99
2023-03-27T03:36:05.163Z,99.99
2023-03-27T03:37:04.972Z,99.99
2023-03-27T03:38:04.928Z,99.99
2023-03-27T03:39:04.879Z,99.99
2023-03-27T03:40:05.018Z,99.99
2023-03-27T03:41:05.090Z,99.99
2023-03-27T03:42:04.915Z,99.99
2023-03-27T03:43:04.804Z,99.99
2023-03-27T03:44:05.007Z,99.99
2023-03-27T03:45:05.025Z,99.99
2023-03-27T03:46:04.972Z,99.99
2023-03-27T03:47:04.738Z,99.99
2023-03-27T03:48:04.841Z,99.99
2023-03-27T03:49:05.062Z,99.99
2023-03-27T03:50:05.743Z,99.99
2023-03-27T03:51:04.735Z,99.99
2023-03-27T03:52:05.021Z,99.99
2023-03-27T03:53:05.027Z,99.99
2023-03-27T03:54:05.058Z,99.99
2023-03-27T03:55:04.874Z,99.99
2023-03-27T03:56:04.846Z,99.99
2023-03-27T03:57:04.756Z,99.99
2023-03-27T03:58:04.560Z,99.99
2023-03-27T03:59:04.688Z,99.99
2023-03-27T04:00:05.356Z,99.99
2023-03-27T04:01:04.433Z,99.99
2023-03-27T04:02:04.551Z,99.99
2023-03-27T04:03:04.792Z,99.99
2023-03-27T04:04:04.470Z,99.99
2023-03-27T04:05:08.426Z,99.99
2023-03-27T04:06:08.531Z,99.99
2023-03-27T04:07:04.436Z,99.99
2023-03-27T04:08:04.531Z,99.99
2023-03-27T04:09:09.318Z,99.99
2023-03-27T04:10:04.348Z,99.99
2023-03-27T04:11:04.366Z,99.99
2023-03-27T04:12:04.441Z,99.99
2023-03-27T04:13:04.462Z,99.99
2023-03-27T04:14:04.297Z,99.99
2023-03-27T04:15:04.300Z,99.99
2023-03-27T04:16:04.374Z,99.99
2023-03-27T04:17:04.315Z,99.99
2023-03-27T04:18:04.441Z,99.99
2023-03-27T04:19:04.284Z,99.99
2023-03-27T04:20:04.248Z,99.99
2023-03-27T04:21:04.267Z,99.99
2023-03-27T04:22:05.275Z,99.99
2023-03-27T04:23:04.238Z,99.99
2023-03-27T04:24:04.197Z,99.99
2023-03-27T04:25:04.205Z,99.99
2023-03-27T04:26:04.276Z,99.99
2023-03-27T04:27:04.157Z,99.99
2023-03-27T04:28:04.920Z,99.99
2023-03-27T04:29:04.224Z,99.99
2023-03-27T04:30:04.142Z,99.99
2023-03-27T04:31:04.153Z,99.99
2023-03-27T04:32:04.183Z,99.99
2023-03-27T04:33:06.303Z,99.99
2023-03-27T04:34:04.094Z,99.99
2023-03-27T04:35:04.101Z,99.99
2023-03-27T04:36:06.340Z,99.99
2023-03-27T04:37:04.089Z,99.99
2023-03-27T04:38:04.106Z,99.99
2023-03-27T04:39:04.180Z,99.99
2023-03-27T04:40:04.080Z,99.99
2023-03-27T04:41:04.079Z,99.99
2023-03-27T04:42:04.080Z,99.99
2023-03-27T04:43:04.167Z,99.99
2023-03-27T04:44:03.992Z,99.99
2023-03-27T04:45:04.025Z,99.99
2023-03-27T04:46:03.991Z,99.99
2023-03-27T04:47:05.412Z,99.99
2023-03-27T04:48:04.057Z,99.99
2023-03-27T04:49:03.939Z,99.99
2023-03-27T04:50:03.956Z,99.99
2023-03-27T04:51:04.057Z,99.99
2023-03-27T04:52:05.008Z,99.99
2023-03-27T04:53:03.862Z,99.99
2023-03-27T04:54:03.940Z,99.99
2023-03-27T04:55:03.851Z,99.99
2023-03-27T04:56:03.884Z,99.99
2023-03-27T04:57:03.907Z,99.99
2023-03-27T04:58:03.823Z,99.99
2023-03-27T04:59:03.870Z,99.99
2023-03-27T05:00:03.819Z,99.99
2023-03-27T05:01:03.827Z,99.99
2023-03-27T05:02:03.777Z,99.99
2023-03-27T05:03:03.884Z,99.99
2023-03-27T05:04:03.900Z,99.99
2023-03-27T05:05:03.757Z,99.99
2023-03-27T05:06:03.790Z,99.99
2023-03-27T05:07:03.741Z,99.99
2023-03-27T05:08:03.813Z,99.99
2023-03-27T05:09:03.768Z,99.99
2023-03-27T05:10:03.710Z,99.99
2023-03-27T05:11:03.880Z,99.99
2023-03-27T05:12:03.716Z,99.99
2023-03-27T05:13:03.758Z,99.99
2023-03-27T05:14:03.736Z,99.99
2023-03-27T05:15:03.821Z,99.99
2023-03-27T05:16:03.855Z,99.99
2023-03-27T05:17:03.919Z,99.99
2023-03-27T05:18:03.846Z,99.99
2023-03-27T05:19:04.084Z,99.99
2023-03-27T05:20:03.708Z,99.99
2023-03-27T05:21:03.579Z,99.99
2023-03-27T05:22:03.574Z,99.99
2023-03-27T05:23:03.681Z,99.99
2023-03-27T05:24:03.718Z,99.99
2023-03-27T05:25:03.540Z,99.99
2023-03-27T05:26:03.537Z,99.99
2023-03-27T05:27:03.562Z,99.99
2023-03-27T05:28:03.543Z,99.99
2023-03-27T05:29:03.516Z,99.99
2023-03-27T05:30:03.536Z,99.99
2023-03-27T05:31:03.572Z,99.99
2023-03-27T05:32:03.472Z,99.99
2023-03-27T05:33:03.527Z,99.99
2023-03-27T05:34:03.464Z,99.99
2023-03-27T05:35:03.562Z,99.99
2023-03-27T05:36:03.445Z,99.99
2023-03-27T05:37:03.428Z,99.99
2023-03-27T05:38:03.392Z,99.99
2023-03-27T05:39:03.595Z,99.99
2023-03-27T05:40:03.689Z,99.99
2023-03-27T05:41:03.816Z,99.99
2023-03-27T05:42:03.606Z,99.99
2023-03-27T05:43:03.348Z,99.99
2023-03-27T05:44:03.358Z,99.99
2023-03-27T05:45:03.356Z,99.99
2023-03-27T05:46:03.385Z,99.99
2023-03-27T05:47:03.375Z,99.99
2023-03-27T05:48:03.382Z,99.99
2023-03-27T05:49:03.297Z,99.99
2023-03-27T05:50:03.295Z,99.99
2023-03-27T05:51:03.301Z,99.99
2023-03-27T05:52:03.405Z,99.99
2023-03-27T05:53:03.311Z,99.99
2023-03-27T05:54:03.286Z,99.99
2023-03-27T05:55:08.286Z,99.99
2023-03-27T05:56:03.749Z,99.99
2023-03-27T05:57:03.284Z,99.99
2023-03-27T05:58:03.286Z,99.99
2023-03-27T05:59:03.210Z,99.99
2023-03-27T06:00:03.191Z,99.99
2023-03-27T06:01:03.171Z,99.99
2023-03-27T06:02:03.266Z,99.99
2023-03-27T06:03:03.288Z,99.99
2023-03-27T06:04:03.345Z,99.99
2023-03-27T06:05:03.182Z,99.99
2023-03-27T06:06:03.161Z,99.99
2023-03-27T06:07:03.109Z,99.99
2023-03-27T06:08:03.133Z,99.99
2023-03-27T06:09:03.099Z,99.99
2023-03-27T06:10:03.345Z,99.99
2023-03-27T06:11:03.107Z,99.99
2023-03-27T06:12:03.055Z,99.99
2023-03-27T06:13:03.105Z,99.99
2023-03-27T06:14:03.055Z,99.99
2023-03-27T06:15:03.075Z,99.99
2023-03-27T06:16:03.122Z,99.99
2023-03-27T06:17:03.023Z,99.99
2023-03-27T06:18:03.061Z,99.99
2023-03-27T06:19:03.026Z,99.99
2023-03-27T06:20:03.152Z,99.99
2023-03-27T06:21:02.981Z,99.99
2023-03-27T06:22:02.958Z,99.99
2023-03-27T06:23:02.958Z,99.99
2023-03-27T06:24:02.963Z,99.99
2023-03-27T06:25:03.016Z,99.99
2023-03-27T06:26:02.960Z,99.99
2023-03-27T06:27:02.933Z,99.99
2023-03-27T06:28:02.918Z,99.99
2023-03-27T06:29:07.948Z,99.99
2023-03-27T06:30:03.057Z,99.99
2023-03-27T06:31:02.940Z,99.99
2023-03-27T06:32:02.860Z,99.99
2023-03-27T06:33:02.868Z,99.99
2023-03-27T06:34:02.992Z,99.99
2023-03-27T06:35:02.844Z,99.99
2023-03-27T06:36:02.886Z,99.99
2023-03-27T06:37:02.886Z,99.99
2023-03-27T06:38:02.867Z,99.99
2023-03-27T06:39:02.821Z,99.99
2023-03-27T06:40:02.834Z,99.99
2023-03-27T06:41:02.835Z,99.99
2023-03-27T06:42:02.778Z,99.99
2023-03-27T06:43:02.752Z,99.99
2023-03-27T06:44:02.763Z,99.99
2023-03-27T06:45:02.753Z,99.99
2023-03-27T06:46:02.775Z,99.99
2023-03-27T06:47:02.766Z,99.99
2023-03-27T06:48:17.997Z,99.99
2023-03-27T06:49:02.796Z,99.99
2023-03-27T06:50:02.899Z,99.99
2023-03-27T06:51:02.678Z,99.99
2023-03-27T06:52:02.822Z,99.85
2023-03-27T06:53:04.258Z,99.08
2023-03-27T06:54:02.642Z,98.35
2023-03-27T06:55:02.651Z,97.78
2023-03-27T06:56:02.646Z,97.27
2023-03-27T06:57:02.650Z,96.85
2023-03-27T06:58:02.650Z,96.59
2023-03-27T06:59:02.860Z,96.18
2023-03-27T07:00:02.862Z,96.08
2023-03-27T07:01:02.600Z,95.97
2023-03-27T07:02:02.693Z,95.83
2023-03-27T07:03:02.583Z,95.51
2023-03-27T07:04:02.752Z,95.30
2023-03-27T07:05:05.123Z,95.20
2023-03-27T07:06:02.963Z,95.20
2023-03-27T07:07:02.737Z,95.20
2023-03-27T07:08:14.865Z,95.15
2023-03-27T07:09:02.503Z,94.74
2023-03-27T07:10:02.495Z,94.43
2023-03-27T07:11:11.503Z,94.28
2023-03-27T07:12:02.483Z,93.55
2023-03-27T07:13:02.506Z,93.24
2023-03-27T07:14:02.483Z,92.78
2023-03-27T07:15:02.430Z,92.47
2023-03-27T07:16:02.461Z,92.16
2023-03-27T07:17:02.433Z,91.08
2023-03-27T07:18:02.453Z,90.35
2023-03-27T07:19:02.781Z,90.25
2023-03-27T07:20:02.394Z,89.21
2023-03-27T07:21:02.393Z,88.23
2023-03-27T07:22:02.365Z,88.23
2023-03-27T07:23:02.363Z,87.82
2023-03-27T07:24:02.388Z,88.09
2023-03-27T07:25:02.366Z,87.68
2023-03-27T07:26:02.312Z,87.16
2023-03-27T07:27:02.468Z,87.74
2023-03-27T07:28:04.291Z,87.43
2023-03-27T07:29:02.385Z,86.70
2023-03-27T07:30:02.283Z,86.39
2023-03-27T07:31:02.583Z,85.94
2023-03-27T07:32:06.307Z,85.35
2023-03-27T07:33:02.353Z,85.42
2023-03-27T07:34:02.722Z,85.42
2023-03-27T07:35:02.226Z,85.94
2023-03-27T07:36:02.254Z,85.48
2023-03-27T07:37:02.313Z,85.03
2023-03-27T07:38:02.206Z,84.92
2023-03-27T07:39:02.218Z,84.68
2023-03-27T07:40:02.157Z,84.27
2023-03-27T07:41:02.167Z,84.16
2023-03-27T07:42:02.169Z,83.81
2023-03-27T07:43:02.168Z,81.99
2023-03-27T07:44:02.130Z,81.23
2023-03-27T07:45:04.384Z,81.74
2023-03-27T07:46:02.185Z,80.85
2023-03-27T07:47:02.169Z,80.74
2023-03-27T07:48:02.089Z,81.05
2023-03-27T07:49:02.092Z,81.88
2023-03-27T07:50:02.105Z,80.95
2023-03-27T07:52:02.371Z,81.64
2023-03-27T07:53:02.048Z,81.12
2023-03-27T07:54:02.025Z,81.33
2023-03-27T07:55:02.030Z,80.71
2023-03-27T07:56:02.019Z,81.39
2023-03-27T07:57:02.060Z,79.94
2023-03-27T07:58:03.544Z,80.26
2023-03-27T07:59:01.990Z,79.91
2023-03-27T08:00:01.959Z,78.67
2023-03-27T08:01:02.673Z,78.70
2023-03-27T08:02:02.330Z,78.60
2023-03-27T08:03:02.147Z,78.36
2023-03-27T08:04:02.033Z,79.29
2023-03-27T08:05:02.084Z,78.36
2023-03-27T08:06:01.933Z,77.43
2023-03-27T08:07:03.125Z,77.53
2023-03-27T08:08:01.921Z,78.36
2023-03-27T08:09:02.931Z,78.01
2023-03-27T08:10:02.332Z,77.64
2023-03-27T08:11:01.878Z,77.87
2023-03-27T08:12:01.857Z,77.53
2023-03-27T08:13:01.833Z,77.33
2023-03-27T08:14:01.871Z,77.19
2023-03-27T08:15:01.809Z,77.25
2023-03-27T08:16:01.822Z,77.36
2023-03-27T08:17:14.658Z,76.70
2023-03-27T08:18:01.865Z,75.36
2023-03-27T08:19:01.906Z,75.15
2023-03-27T08:20:01.807Z,75.77
2023-03-27T08:21:01.862Z,75.77
2023-03-27T08:22:01.740Z,76.22
2023-03-27T08:23:01.742Z,76.67
2023-03-27T08:24:01.717Z,76.50
2023-03-27T08:25:01.732Z,76.50
2023-03-27T08:26:01.688Z,76.70
2023-03-27T08:27:01.708Z,77.12
2023-03-27T08:28:01.843Z,77.64
2023-03-27T08:29:01.672Z,76.67
2023-03-27T08:30:01.652Z,75.98
2023-03-27T08:31:02.623Z,74.91
2023-03-27T08:32:01.629Z,73.33
2023-03-27T08:33:01.712Z,72.92
2023-03-27T08:34:01.701Z,73.88
2023-03-27T08:35:01.595Z,74.40
2023-03-27T08:36:01.634Z,75.39
2023-03-27T08:37:01.619Z,74.98
2023-03-27T08:38:01.596Z,74.26
2023-03-27T08:39:01.584Z,73.26
2023-03-27T08:40:01.569Z,74.40
2023-03-27T08:41:01.534Z,73.71
2023-03-27T08:42:01.665Z,73.74
2023-03-27T08:43:01.516Z,74.71
2023-03-27T08:44:01.544Z,75.53
2023-03-27T08:45:01.494Z,74.08
2023-03-27T08:46:01.519Z,75.32
2023-03-27T08:47:01.467Z,74.60
2023-03-27T08:48:01.623Z,75.63
2023-03-27T08:49:01.504Z,75.63
2023-03-27T08:50:01.766Z,73.77
2023-03-27T08:51:01.522Z,72.71
2023-03-27T08:52:01.583Z,73.39
2023-03-27T08:53:01.409Z,74.22
2023-03-27T08:54:01.409Z,73.39
2023-03-27T08:55:01.391Z,73.88
2023-03-27T08:56:01.393Z,73.39
2023-03-27T08:57:01.419Z,73.74
2023-03-27T08:58:01.482Z,74.36
2023-03-27T08:59:01.349Z,74.46
2023-03-27T09:00:01.356Z,74.40
2023-03-27T09:01:01.331Z,72.71
2023-03-27T09:02:01.357Z,73.36
2023-03-27T09:03:01.428Z,72.44
2023-03-27T09:04:01.375Z,71.85
2023-03-27T09:05:01.280Z,72.37
2023-03-27T09:06:01.289Z,72.40
2023-03-27T09:07:01.277Z,72.33
2023-03-27T09:08:01.267Z,72.36
2023-03-27T09:09:01.275Z,72.47
2023-03-27T09:10:01.252Z,73.50
2023-03-27T09:11:01.365Z,72.88
2023-03-27T09:12:01.240Z,71.67
2023-03-27T09:13:01.194Z,72.81
2023-03-27T09:14:01.211Z,73.50
2023-03-27T09:15:01.230Z,72.67
2023-03-27T09:16:01.260Z,72.67
2023-03-27T09:17:01.153Z,72.13
2023-03-27T09:18:01.357Z,69.72
2023-03-27T09:19:01.126Z,70.51
2023-03-27T09:20:01.159Z,69.17
2023-03-27T09:21:01.118Z,68.90
2023-03-27T09:22:01.357Z,68.48
2023-03-27T09:23:01.108Z,68.82
2023-03-27T09:24:01.107Z,69.44
2023-03-27T09:25:01.099Z,68.44
2023-03-27T09:26:01.116Z,68.44
2023-03-27T09:27:07.092Z,70.37
2023-03-27T09:28:01.116Z,68.45
2023-03-27T09:29:01.033Z,68.24
2023-03-27T09:30:05.302Z,68.80
2023-03-27T09:31:01.188Z,68.32
2023-03-27T09:32:01.051Z,66.58
2023-03-27T09:33:01.079Z,66.93
2023-03-27T09:34:01.133Z,63.67
2023-03-27T09:35:01.011Z,64.79
2023-03-27T09:36:01.192Z,64.48
2023-03-27T09:37:00.998Z,64.25
2023-03-27T09:38:00.962Z,66.17
2023-03-27T09:39:00.945Z,64.28
2023-03-27T09:40:00.930Z,65.65
2023-03-27T09:41:00.907Z,65.55
2023-03-27T09:42:01.018Z,65.11
2023-03-27T09:43:00.958Z,63.18
2023-03-27T09:44:00.890Z,64.46
2023-03-27T09:45:00.878Z,63.68
2023-03-27T09:46:00.875Z,63.00
2023-03-27T09:47:00.880Z,63.10
2023-03-27T09:48:01.650Z,60.54
2023-03-27T09:49:00.902Z,61.00
2023-03-27T09:50:00.834Z,62.34
2023-03-27T09:51:01.076Z,62.62
2023-03-27T09:52:00.802Z,61.44
2023-03-27T09:53:00.780Z,59.66
2023-03-27T09:54:00.801Z,59.41
2023-03-27T09:55:00.801Z,59.43
2023-03-27T09:56:02.993Z,60.17
2023-03-27T09:57:00.764Z,58.62
2023-03-27T09:58:00.933Z,60.42
2023-03-27T09:59:00.776Z,60.24
2023-03-27T10:00:00.727Z,60.17
2023-03-27T10:01:00.708Z,61.98
2023-03-27T10:02:00.690Z,62.72
2023-03-27T10:03:00.836Z,61.93
2023-03-27T10:04:00.770Z,62.57
2023-03-27T10:05:01.118Z,62.18
2023-03-27T10:06:00.668Z,59.70
2023-03-27T10:07:00.794Z,59.05
2023-03-27T10:08:00.876Z,56.61
2023-03-27T10:09:00.798Z,51.34
2023-03-27T10:10:00.715Z,52.98
2023-03-27T10:11:00.716Z,53.11
2023-03-27T10:12:00.611Z,52.62
2023-03-27T10:13:00.628Z,52.83
2023-03-27T10:14:00.818Z,53.44
2023-03-27T10:15:01.514Z,54.87
2023-03-27T10:16:00.637Z,57.36
2023-03-27T10:17:00.607Z,55.49
2023-03-27T10:18:00.734Z,53.26
2023-03-27T10:19:00.852Z,52.90
2023-03-27T10:20:00.588Z,50.30
2023-03-27T10:21:00.517Z,48.23
2023-03-27T10:22:00.574Z,48.82
2023-03-27T10:23:00.624Z,48.06
2023-03-27T10:24:00.477Z,48.19
2023-03-27T10:25:00.445Z,45.22
2023-03-27T10:26:00.453Z,48.67
2023-03-27T10:27:00.487Z,47.82
2023-03-27T10:28:00.478Z,49.89
2023-03-27T10:29:00.487Z,48.39
2023-03-27T10:30:00.394Z,48.30
2023-03-27T10:31:00.406Z,45.50
2023-03-27T10:32:00.594Z,43.35
2023-03-27T10:33:00.556Z,42.94
2023-03-27T10:34:00.361Z,43.44
2023-03-27T10:35:00.357Z,44.97
2023-03-27T10:36:00.372Z,42.63
2023-03-27T10:37:00.312Z,44.61
2023-03-27T10:38:00.483Z,47.20
2023-03-27T10:39:00.310Z,45.39
2023-03-27T10:40:00.345Z,46.86
2023-03-27T10:41:00.281Z,49.14
2023-03-27T10:42:00.632Z,48.77
2023-03-27T10:43:00.372Z,50.15
2023-03-27T10:44:00.276Z,49.77
2023-03-27T10:45:00.272Z,49.47
2023-03-27T10:46:00.319Z,51.07
2023-03-27T10:47:00.276Z,52.36
2023-03-27T10:48:00.387Z,52.59
2023-03-27T10:49:00.214Z,52.94
2023-03-27T10:50:00.197Z,54.38
2023-03-27T10:51:00.176Z,53.97
2023-03-27T10:52:00.483Z,50.31
2023-03-27T10:53:00.248Z,48.43
2023-03-27T10:54:00.257Z,47.45
2023-03-27T10:55:00.372Z,44.73
2023-03-27T10:56:00.181Z,43.32
2023-03-27T10:57:00.279Z,44.48
2023-03-27T10:58:00.163Z,42.13
2023-03-27T10:59:00.114Z,40.69
2023-03-27T11:00:00.166Z,41.17
2023-03-27T11:01:00.516Z,43.37
2023-03-27T11:02:00.165Z,44.67
2023-03-27T11:03:00.141Z,45.86
2023-03-27T11:04:00.132Z,47.91
2023-03-27T11:05:00.089Z,48.57
2023-03-27T11:06:00.033Z,51.59
2023-03-27T11:07:00.019Z,54.49
2023-03-27T11:08:00.009Z,56.36
2023-03-27T11:09:00.004Z,58.85
2023-03-27T11:10:00.039Z,60.13
2023-03-27T11:11:00.054Z,59.75
2023-03-27T11:12:00.119Z,58.45
2023-03-27T11:12:59.955Z,57.79
2023-03-27T11:14:00.556Z,58.51
2023-03-27T11:14:59.930Z,58.48
2023-03-27T11:15:59.936Z,56.76
2023-03-27T11:16:59.919Z,54.61
2023-03-27T11:17:59.929Z,52.55
2023-03-27T11:18:59.881Z,52.66
2023-03-27T11:19:59.902Z,49.71
2023-03-27T11:21:02.536Z,47.96
2023-03-27T11:21:59.866Z,46.89
2023-03-27T11:22:59.857Z,46.97
2023-03-27T11:23:59.998Z,46.41
2023-03-27T11:24:59.908Z,46.75
2023-03-27T11:25:59.913Z,45.39
2023-03-27T11:26:59.808Z,46.22
2023-03-27T11:27:59.817Z,46.53
2023-03-27T11:28:59.839Z,45.29
2023-03-27T11:30:00.004Z,46.06
2023-03-27T11:31:00.105Z,47.90
2023-03-27T11:31:59.801Z,50.45
2023-03-27T11:33:00.205Z,51.81
2023-03-27T11:33:59.732Z,54.18
2023-03-27T11:35:01.322Z,56.71
2023-03-27T11:35:59.854Z,60.76
2023-03-27T11:36:59.730Z,61.41
2023-03-27T11:38:00.138Z,63.82
2023-03-27T11:38:59.862Z,65.14
2023-03-27T11:39:59.710Z,68.91
2023-03-27T11:40:59.876Z,70.76
2023-03-27T11:41:59.735Z,72.85
2023-03-27T11:42:59.646Z,73.60
2023-03-27T11:43:59.631Z,75.70
2023-03-27T11:44:59.870Z,76.08
2023-03-27T11:45:59.629Z,75.12
2023-03-27T11:46:59.615Z,74.84
2023-03-27T11:47:59.662Z,72.71
2023-03-27T11:48:59.568Z,70.69
2023-03-27T11:49:59.591Z,69.22
2023-03-27T11:50:59.626Z,68.32
2023-03-27T11:51:59.623Z,67.36
2023-03-27T11:52:59.741Z,66.58
2023-03-27T11:53:59.520Z,66.01
2023-03-27T11:54:59.500Z,63.73
2023-03-27T11:55:59.584Z,60.37
2023-03-27T11:56:59.502Z,56.59
2023-03-27T11:57:59.536Z,57.81
2023-03-27T11:58:59.509Z,57.51
2023-03-27T11:59:59.514Z,56.43
2023-03-27T12:00:59.509Z,55.66
2023-03-27T12:01:59.497Z,53.01
2023-03-27T12:02:59.589Z,50.66
2023-03-27T12:03:59.698Z,53.08
2023-03-27T12:04:59.395Z,55.90
2023-03-27T12:05:59.601Z,55.54
2023-03-27T12:07:04.353Z,57.30
2023-03-27T12:07:59.392Z,56.95
2023-03-27T12:08:59.920Z,58.05
2023-03-27T12:09:59.353Z,59.72
2023-03-27T12:10:59.530Z,60.23
2023-03-27T12:11:59.343Z,58.58
2023-03-27T12:12:59.315Z,58.17
2023-03-27T12:14:02.138Z,58.89
2023-03-27T12:14:59.298Z,59.59
2023-03-27T12:15:59.321Z,58.79
2023-03-27T12:16:59.272Z,56.84
2023-03-27T12:17:59.300Z,59.56
2023-03-27T12:19:06.016Z,57.79
2023-03-27T12:19:59.334Z,57.07
2023-03-27T12:20:59.242Z,55.76
2023-03-27T12:21:59.263Z,53.64
2023-03-27T12:22:59.209Z,53.57
2023-03-27T12:23:59.204Z,54.33
2023-03-27T12:25:00.149Z,51.12
2023-03-27T12:25:59.348Z,51.32
2023-03-27T12:26:59.223Z,51.63
2023-03-27T12:27:59.325Z,52.75
2023-03-27T12:28:59.171Z,51.76
2023-03-27T12:29:59.172Z,51.46
2023-03-27T12:30:59.261Z,49.71
2023-03-27T12:31:59.243Z,47.75
2023-03-27T12:33:00.351Z,48.19
2023-03-27T12:33:59.113Z,48.04
2023-03-27T12:34:59.081Z,48.11
2023-03-27T12:35:59.135Z,47.49
2023-03-27T12:36:59.464Z,46.75
2023-03-27T12:37:59.052Z,44.74
2023-03-27T12:38:59.077Z,45.23
2023-03-27T12:39:59.116Z,46.10
2023-03-27T12:40:59.264Z,46.80
2023-03-27T12:41:59.034Z,48.28
2023-03-27T12:42:59.019Z,50.62
2023-03-27T12:43:59.049Z,53.47
2023-03-27T12:45:00.076Z,56.07
2023-03-27T12:45:58.995Z,58.12
2023-03-27T12:46:59.016Z,56.79
2023-03-27T12:47:59.004Z,57.40
2023-03-27T12:48:58.978Z,58.30
2023-03-27T12:49:58.952Z,60.86
2023-03-27T12:50:59.168Z,60.56
2023-03-27T12:51:58.910Z,61.20
2023-03-27T12:52:59.028Z,60.51